createdAt,value
2019-05-10T00:00:29.275Z,14.39
2019-05-10T00:01:29.285Z,14.40
2019-05-10T00:03:22.200Z,14.42
2019-05-10T00:04:22.204Z,14.37
2019-05-10T00:06:15.117Z,14.35
2019-05-10T00:07:15.127Z,14.39
2019-05-10T00:09:08.045Z,14.33
2019-05-10T00:10:08.051Z,14.43
2019-05-10T00:12:00.965Z,14.32
2019-05-10T00:13:00.969Z,14.27
2019-05-10T00:14:53.892Z,14.20
2019-05-10T00:15:53.894Z,14.18
2019-05-10T00:17:46.812Z,14.24
2019-05-10T00:18:46.816Z,14.24
2019-05-10T00:20:39.730Z,14.25
2019-05-10T00:21:39.744Z,14.18
2019-05-10T00:23:32.652Z,14.17
2019-05-10T00:24:32.656Z,14.24
2019-05-10T00:26:25.566Z,14.21
2019-05-10T00:27:25.579Z,14.15
2019-05-10T00:29:18.493Z,14.22
2019-05-10T00:30:18.499Z,14.22
2019-05-10T00:32:11.415Z,14.22
2019-05-10T00:33:11.427Z,14.20
2019-05-10T00:35:04.337Z,14.15
2019-05-10T00:36:04.344Z,14.09
2019-05-10T00:37:57.269Z,14.18
2019-05-10T00:38:57.263Z,14.18
2019-05-10T00:40:50.171Z,14.15
2019-05-10T00:41:50.184Z,14.09
2019-05-10T00:43:43.101Z,14.06
2019-05-10T00:44:43.106Z,14.10
2019-05-10T00:46:36.014Z,14.04
2019-05-10T00:47:36.023Z,14.04
2019-05-10T00:49:28.938Z,14.03
2019-05-10T00:50:28.945Z,13.96
2019-05-10T00:52:21.857Z,14.00
2019-05-10T00:53:21.860Z,13.88
2019-05-10T00:55:19.077Z,13.88
2019-05-10T00:56:14.783Z,13.92
2019-05-10T00:58:07.696Z,13.96
2019-05-10T00:59:07.703Z,13.96
2019-05-10T01:01:00.806Z,13.92
2019-05-10T01:02:00.622Z,13.95
2019-05-10T01:03:53.533Z,13.96
2019-05-10T01:04:53.541Z,13.81
2019-05-10T01:06:46.447Z,13.87
2019-05-10T01:07:46.462Z,13.78
2019-05-10T01:09:39.374Z,13.79
2019-05-10T01:10:39.381Z,13.73
2019-05-10T01:12:32.294Z,13.78
2019-05-10T01:13:32.299Z,13.77
2019-05-10T01:15:25.210Z,13.79
2019-05-10T01:16:25.222Z,13.70
2019-05-10T01:18:18.142Z,13.73
2019-05-10T01:19:18.141Z,13.66
2019-05-10T01:21:11.097Z,13.60
2019-05-10T01:22:11.115Z,13.57
2019-05-10T01:24:04.021Z,13.49
2019-05-10T01:25:04.028Z,13.39
2019-05-10T01:26:56.935Z,13.38
2019-05-10T01:27:56.946Z,13.29
2019-05-10T01:29:49.860Z,13.23
2019-05-10T01:30:49.865Z,13.15
2019-05-10T01:32:42.781Z,13.14
2019-05-10T01:33:42.785Z,13.14
2019-05-10T01:35:35.692Z,13.10
2019-05-10T01:36:35.703Z,13.04
2019-05-10T01:38:28.616Z,12.93
2019-05-10T01:39:28.618Z,12.92
2019-05-10T01:41:21.526Z,12.92
2019-05-10T01:42:21.537Z,12.86
2019-05-10T01:44:14.452Z,12.92
2019-05-10T01:45:14.455Z,12.77
2019-05-10T01:47:07.362Z,12.83
2019-05-10T01:48:07.375Z,12.77
2019-05-10T01:50:00.286Z,12.77
2019-05-10T01:51:00.291Z,12.70
2019-05-10T01:52:53.203Z,12.67
2019-05-10T01:53:53.208Z,12.62
2019-05-10T01:55:52.314Z,12.57
2019-05-10T01:56:46.125Z,12.60
2019-05-10T01:58:39.036Z,12.62
2019-05-10T01:59:39.041Z,12.59
2019-05-10T02:01:31.957Z,12.50
2019-05-10T02:02:31.960Z,12.50
2019-05-10T02:04:25.377Z,12.46
2019-05-10T02:05:25.370Z,12.53
2019-05-10T02:07:18.286Z,12.38
2019-05-10T02:08:18.286Z,12.50
2019-05-10T02:10:11.198Z,12.39
2019-05-10T02:11:11.201Z,12.31
2019-05-10T02:13:04.113Z,12.34
2019-05-10T02:14:04.116Z,12.34
2019-05-10T02:15:57.024Z,12.32
2019-05-10T02:16:57.033Z,12.29
2019-05-10T02:18:50.092Z,12.29
2019-05-10T02:19:50.101Z,12.32
2019-05-10T02:21:43.003Z,12.34
2019-05-10T02:22:43.015Z,12.28
2019-05-10T02:24:35.929Z,12.24
2019-05-10T02:25:35.936Z,12.27
2019-05-10T02:27:28.839Z,12.20
2019-05-10T02:28:28.851Z,12.27
2019-05-10T02:30:21.759Z,12.17
2019-05-10T02:31:22.160Z,12.17
2019-05-10T02:33:14.675Z,12.17
2019-05-10T02:34:14.680Z,12.13
2019-05-10T02:36:07.586Z,12.17
2019-05-10T02:37:07.599Z,12.13
2019-05-10T02:39:00.509Z,12.13
2019-05-10T02:40:00.513Z,12.16
2019-05-10T02:41:53.419Z,12.17
2019-05-10T02:42:53.431Z,12.19
2019-05-10T02:44:46.344Z,12.13
2019-05-10T02:45:46.345Z,12.12
2019-05-10T02:47:39.261Z,12.05
2019-05-10T02:48:39.267Z,12.05
2019-05-10T02:50:32.173Z,12.05
2019-05-10T02:51:32.177Z,12.04
2019-05-10T02:53:25.090Z,12.13
2019-05-10T02:54:25.093Z,12.12
2019-05-10T02:56:30.009Z,12.13
2019-05-10T02:57:18.006Z,12.13
2019-05-10T02:59:10.929Z,12.12
2019-05-10T03:00:10.924Z,12.12
2019-05-10T03:02:03.829Z,12.13
2019-05-10T03:03:03.841Z,12.17
2019-05-10T03:04:56.768Z,12.24
2019-05-10T03:05:56.757Z,12.14
2019-05-10T03:07:49.669Z,12.34
2019-05-10T03:08:49.683Z,12.32
2019-05-10T03:10:42.583Z,12.32
2019-05-10T03:11:42.595Z,12.31
2019-05-10T03:13:35.499Z,12.31
2019-05-10T03:14:35.504Z,12.31
2019-05-10T03:16:28.412Z,12.29
2019-05-10T03:17:28.587Z,12.31
2019-05-10T03:19:21.335Z,12.32
2019-05-10T03:20:21.341Z,12.39
2019-05-10T03:22:14.245Z,12.49
2019-05-10T03:23:14.254Z,12.52
2019-05-10T03:25:07.164Z,12.53
2019-05-10T03:26:07.169Z,12.59
2019-05-10T03:28:00.079Z,12.54
2019-05-10T03:29:00.090Z,12.56
2019-05-10T03:30:53.003Z,12.65
2019-05-10T03:31:53.012Z,12.64
2019-05-10T03:33:54.286Z,12.62
2019-05-10T03:34:45.967Z,12.65
2019-05-10T03:36:38.857Z,12.62
2019-05-10T03:37:38.868Z,12.67
2019-05-10T03:39:31.782Z,12.70
2019-05-10T03:40:31.774Z,12.67
2019-05-10T03:42:24.679Z,12.60
2019-05-10T03:43:24.691Z,12.65
2019-05-10T03:45:17.610Z,12.65
2019-05-10T03:46:17.607Z,12.68
2019-05-10T03:48:10.517Z,12.60
2019-05-10T03:49:10.528Z,12.62
2019-05-10T03:51:03.440Z,12.67
2019-05-10T03:52:03.447Z,12.70
2019-05-10T03:53:56.353Z,12.60
2019-05-10T03:54:56.369Z,12.60
2019-05-10T03:57:09.155Z,12.59
2019-05-10T03:57:50.179Z,12.62
2019-05-10T03:59:43.114Z,12.70
2019-05-10T04:00:43.097Z,12.60
2019-05-10T04:02:36.004Z,12.60
2019-05-10T04:03:36.014Z,12.70
2019-05-10T04:05:28.925Z,12.62
2019-05-10T04:06:28.933Z,12.70
2019-05-10T04:08:21.852Z,12.71
2019-05-10T04:09:21.852Z,12.74
2019-05-10T04:11:14.766Z,12.70
2019-05-10T04:12:14.764Z,12.71
2019-05-10T04:14:07.673Z,12.72
2019-05-10T04:15:07.698Z,12.79
2019-05-10T04:17:00.596Z,12.70
2019-05-10T04:18:00.597Z,12.71
2019-05-10T04:19:54.000Z,12.79
2019-05-10T04:20:54.010Z,12.78
2019-05-10T04:22:46.919Z,12.82
2019-05-10T04:23:46.939Z,12.87
2019-05-10T04:25:39.847Z,12.89
2019-05-10T04:26:39.854Z,12.86
2019-05-10T04:28:32.807Z,12.85
2019-05-10T04:29:32.772Z,12.87
2019-05-10T04:31:25.685Z,12.96
2019-05-10T04:32:25.690Z,12.87
2019-05-10T04:34:18.595Z,12.95
2019-05-10T04:35:18.608Z,12.95
2019-05-10T04:37:11.522Z,12.96
2019-05-10T04:38:11.525Z,12.90
2019-05-10T04:40:04.434Z,13.04
2019-05-10T04:41:04.445Z,13.14
2019-05-10T04:42:57.364Z,13.01
2019-05-10T04:43:57.366Z,13.08
2019-05-10T04:45:50.277Z,13.05
2019-05-10T04:46:50.284Z,13.01
2019-05-10T04:48:43.196Z,13.01
2019-05-10T04:49:43.204Z,13.07
2019-05-10T04:51:36.115Z,13.14
2019-05-10T04:52:36.121Z,13.08
2019-05-10T04:54:29.028Z,13.05
2019-05-10T04:55:29.039Z,13.05
2019-05-10T04:57:21.953Z,13.10
2019-05-10T04:58:21.958Z,12.93
2019-05-10T05:00:14.866Z,12.96
2019-05-10T05:01:14.878Z,12.90
2019-05-10T05:03:07.789Z,12.87
2019-05-10T05:04:07.799Z,12.83
2019-05-10T05:06:00.702Z,12.82
2019-05-10T05:07:00.714Z,12.83
2019-05-10T05:08:53.644Z,12.82
2019-05-10T05:09:53.629Z,12.83
2019-05-10T05:11:46.541Z,12.86
2019-05-10T05:12:46.547Z,12.87
2019-05-10T05:14:39.451Z,12.86
2019-05-10T05:15:39.463Z,12.83
2019-05-10T05:17:32.426Z,12.75
2019-05-10T05:18:32.386Z,12.77
2019-05-10T05:20:25.293Z,12.83
2019-05-10T05:21:25.300Z,12.78
2019-05-10T05:23:18.216Z,12.75
2019-05-10T05:24:22.918Z,12.75
2019-05-10T05:26:11.129Z,12.72
2019-05-10T05:27:11.138Z,12.82
2019-05-10T05:29:04.051Z,12.78
2019-05-10T05:30:04.060Z,12.86
2019-05-10T05:32:01.398Z,12.83
2019-05-10T05:32:57.171Z,12.89
2019-05-10T05:34:49.879Z,12.92
2019-05-10T05:35:49.907Z,12.86
2019-05-10T05:37:42.815Z,12.90
2019-05-10T05:38:47.271Z,13.07
2019-05-10T05:40:35.716Z,13.04
2019-05-10T05:41:47.613Z,13.11
2019-05-10T05:43:28.638Z,13.17
2019-05-10T05:44:28.644Z,13.15
2019-05-10T05:46:21.550Z,13.14
2019-05-10T05:47:21.561Z,13.15
2019-05-10T05:49:14.473Z,13.14
2019-05-10T05:50:14.483Z,13.12
2019-05-10T05:52:07.388Z,13.10
2019-05-10T05:53:07.395Z,13.08
2019-05-10T05:55:00.304Z,12.92
2019-05-10T05:56:03.612Z,12.90
2019-05-10T05:57:53.235Z,12.90
2019-05-10T05:58:53.234Z,12.87
2019-05-10T06:00:46.804Z,12.86
2019-05-10T06:01:46.153Z,12.83
2019-05-10T06:03:39.073Z,12.87
2019-05-10T06:04:41.000Z,12.75
2019-05-10T06:06:31.982Z,12.82
2019-05-10T06:07:37.953Z,12.79
2019-05-10T06:09:24.909Z,12.83
2019-05-10T06:10:24.914Z,12.83
2019-05-10T06:12:17.831Z,12.83
2019-05-10T06:13:23.467Z,12.83
2019-05-10T06:15:10.744Z,12.86
2019-05-10T06:16:12.708Z,12.86
2019-05-10T06:18:09.342Z,12.89
2019-05-10T06:19:03.677Z,12.89
2019-05-10T06:20:56.584Z,12.79
2019-05-10T06:21:58.030Z,12.82
2019-05-10T06:23:49.511Z,12.78
2019-05-10T06:24:52.392Z,12.77
2019-05-10T06:26:42.427Z,12.85
2019-05-10T06:27:43.241Z,12.82
2019-05-10T06:29:35.357Z,12.78
2019-05-10T06:30:35.362Z,12.79
2019-05-10T06:32:28.277Z,12.74
2019-05-10T06:33:28.780Z,12.77
2019-05-10T06:35:21.186Z,12.77
2019-05-10T06:36:21.198Z,12.77
2019-05-10T06:38:14.108Z,12.65
2019-05-10T06:39:14.120Z,12.60
2019-05-10T06:41:10.286Z,12.53
2019-05-10T06:42:07.032Z,12.53
2019-05-10T06:44:00.095Z,12.56
2019-05-10T06:45:05.039Z,12.57
2019-05-10T06:46:53.029Z,12.53
2019-05-10T06:47:53.559Z,12.64
2019-05-10T06:49:50.627Z,12.70
2019-05-10T06:50:45.936Z,12.67
2019-05-10T06:52:38.861Z,12.56
2019-05-10T06:53:42.264Z,12.68
2019-05-10T06:55:31.763Z,12.71
2019-05-10T06:56:31.776Z,12.77
2019-05-10T06:58:24.688Z,12.87
2019-05-10T06:59:26.282Z,12.86
2019-05-10T07:01:17.603Z,12.87
2019-05-10T07:02:20.106Z,13.04
2019-05-10T07:04:10.531Z,12.90
2019-05-10T07:05:10.532Z,12.92
2019-05-10T07:07:10.372Z,12.97
2019-05-10T07:08:13.184Z,12.93
2019-05-10T07:10:08.341Z,13.04
2019-05-10T07:10:56.370Z,13.11
2019-05-10T07:12:49.315Z,13.00
2019-05-10T07:13:52.788Z,13.04
2019-05-10T07:15:44.662Z,13.11
2019-05-10T07:16:42.212Z,13.03
2019-05-10T07:18:35.127Z,13.14
2019-05-10T07:19:42.117Z,13.03
2019-05-10T07:21:28.041Z,13.29
2019-05-10T07:22:29.045Z,13.19
2019-05-10T07:24:25.356Z,13.45
2019-05-10T07:25:20.973Z,13.49
2019-05-10T07:27:13.883Z,13.52
2019-05-10T07:28:15.682Z,13.69
2019-05-10T07:30:06.813Z,13.73
2019-05-10T07:31:06.819Z,13.73
2019-05-10T07:33:01.828Z,14.03
2019-05-10T07:33:59.739Z,13.91
2019-05-10T07:35:52.652Z,14.09
2019-05-10T07:36:52.660Z,13.96
2019-05-10T07:38:45.579Z,14.14
2019-05-10T07:39:45.584Z,14.22
2019-05-10T07:41:38.511Z,14.22
2019-05-10T07:42:40.001Z,14.22
2019-05-10T07:44:31.423Z,14.28
2019-05-10T07:45:31.430Z,14.27
2019-05-10T07:47:30.250Z,14.27
2019-05-10T07:48:24.355Z,14.22
2019-05-10T07:50:17.277Z,14.20
2019-05-10T07:51:17.279Z,14.27
2019-05-10T07:53:10.198Z,14.22
2019-05-10T07:54:10.205Z,14.10
2019-05-10T07:56:06.075Z,13.97
2019-05-10T07:57:03.128Z,14.04
2019-05-10T07:58:56.043Z,13.91
2019-05-10T07:59:57.509Z,13.97
2019-05-10T08:01:49.348Z,13.96
2019-05-10T08:02:51.200Z,13.89
2019-05-10T08:04:41.890Z,13.89
2019-05-10T08:05:46.315Z,14.03
2019-05-10T08:07:34.809Z,14.00
2019-05-10T08:08:34.821Z,14.06
2019-05-10T08:10:28.925Z,14.17
2019-05-10T08:11:28.534Z,14.24
2019-05-10T08:13:24.979Z,14.40
2019-05-10T08:14:20.671Z,14.28
2019-05-10T08:16:19.711Z,14.14
2019-05-10T08:17:13.596Z,14.00
2019-05-10T08:19:06.511Z,13.85
2019-05-10T08:20:09.009Z,13.91
2019-05-10T08:22:01.818Z,13.77
2019-05-10T08:22:59.438Z,13.66
2019-05-10T08:24:56.027Z,13.62
2019-05-10T08:25:53.353Z,13.49
2019-05-10T08:27:50.567Z,13.44
2019-05-10T08:28:45.286Z,13.42
2019-05-10T08:30:42.498Z,13.52
2019-05-10T08:31:50.605Z,13.63
2019-05-10T08:33:32.803Z,13.67
2019-05-10T08:34:35.698Z,13.59
2019-05-10T08:36:24.057Z,13.67
2019-05-10T08:37:30.913Z,13.79
2019-05-10T08:39:16.974Z,14.14
2019-05-10T08:40:19.657Z,14.21
2019-05-10T08:42:29.415Z,14.51
2019-05-10T08:43:13.985Z,14.55
2019-05-10T08:45:05.333Z,14.69
2019-05-10T08:46:02.837Z,14.83
2019-05-10T08:48:00.862Z,14.99
2019-05-10T08:48:55.760Z,14.92
2019-05-10T08:50:55.942Z,14.96
2019-05-10T08:51:49.475Z,15.10
2019-05-10T08:53:42.241Z,15.19
2019-05-10T08:54:42.292Z,15.17
2019-05-10T08:56:34.539Z,15.20
2019-05-10T08:57:43.309Z,15.38
2019-05-10T08:59:30.691Z,15.39
2019-05-10T09:00:41.762Z,15.38
2019-05-10T09:02:28.932Z,15.51
2019-05-10T09:03:22.575Z,15.51
2019-05-10T09:05:13.323Z,15.35
2019-05-10T09:06:16.695Z,15.38
2019-05-10T09:08:13.623Z,15.35
2019-05-10T09:09:08.278Z,15.25
2019-05-10T09:10:59.176Z,15.01
2019-05-10T09:12:04.240Z,14.84
2019-05-10T09:13:53.832Z,14.65
2019-05-10T09:14:57.580Z,14.43
2019-05-10T09:16:56.406Z,14.43
2019-05-10T09:17:45.033Z,14.32
2019-05-10T09:19:43.463Z,14.29
2019-05-10T09:20:37.959Z,14.21
2019-05-10T09:22:33.770Z,13.87
2019-05-10T09:23:32.631Z,13.89
2019-05-10T09:25:29.207Z,13.75
2019-05-10T09:26:23.806Z,13.60
2019-05-10T09:28:17.202Z,13.57
2019-05-10T09:29:16.731Z,13.55
2019-05-10T09:31:18.833Z,13.60
2019-05-10T09:32:09.654Z,13.62
2019-05-10T09:34:02.674Z,13.69
2019-05-10T09:35:07.685Z,13.78
2019-05-10T09:36:55.495Z,14.02
2019-05-10T09:37:58.581Z,14.17
2019-05-10T09:39:54.943Z,14.27
2019-05-10T09:40:52.987Z,14.28
2019-05-10T09:42:43.482Z,14.33
2019-05-10T09:43:48.472Z,14.39
2019-05-10T09:45:34.264Z,14.39
2019-05-10T09:46:34.274Z,14.50
2019-05-10T09:48:27.185Z,14.65
2019-05-10T09:49:27.200Z,14.86
2019-05-10T09:51:25.562Z,15.06
2019-05-10T09:52:20.128Z,15.19
2019-05-10T09:54:13.069Z,15.20
2019-05-10T09:55:14.858Z,14.94
2019-05-10T09:57:08.206Z,14.58
2019-05-10T09:58:08.427Z,14.42
2019-05-10T09:59:58.904Z,14.42
2019-05-10T10:01:13.858Z,14.45
2019-05-10T10:02:56.359Z,14.42
2019-05-10T10:03:51.833Z,14.27
2019-05-10T10:05:44.752Z,14.10
2019-05-10T10:06:48.076Z,14.07
2019-05-10T10:08:38.390Z,14.15
2019-05-10T10:09:44.536Z,14.29
2019-05-10T10:11:30.610Z,14.42
2019-05-10T10:12:30.612Z,14.36
2019-05-10T10:14:23.527Z,14.32
2019-05-10T10:15:32.133Z,14.40
2019-05-10T10:17:18.384Z,14.42
2019-05-10T10:18:21.217Z,14.39
2019-05-10T10:20:09.385Z,14.47
2019-05-10T10:21:10.454Z,14.57
2019-05-10T10:23:02.313Z,14.70
2019-05-10T10:24:12.572Z,14.73
2019-05-10T10:25:57.785Z,15.14
2019-05-10T10:26:56.019Z,15.35
2019-05-10T10:28:49.582Z,15.72
2019-05-10T10:29:48.184Z,15.84
2019-05-10T10:31:51.228Z,16.01
2019-05-10T10:32:44.417Z,16.11
2019-05-10T10:34:38.685Z,16.34
2019-05-10T10:35:34.043Z,16.31
2019-05-10T10:37:29.111Z,16.27
2019-05-10T10:38:30.584Z,16.33
2019-05-10T10:40:19.907Z,16.42
2019-05-10T10:41:25.917Z,16.50
2019-05-10T10:43:12.828Z,16.52
2019-05-10T10:44:12.844Z,16.60
2019-05-10T10:46:11.842Z,16.78
2019-05-10T10:47:08.056Z,16.76
2019-05-10T10:48:58.690Z,16.86
2019-05-10T10:50:03.057Z,16.82
2019-05-10T10:51:51.629Z,16.67
2019-05-10T10:52:51.638Z,16.53
2019-05-10T10:54:44.555Z,16.70
2019-05-10T10:55:46.120Z,16.66
2019-05-10T10:57:37.540Z,16.86
2019-05-10T10:58:37.500Z,17.04
2019-05-10T11:00:30.434Z,16.89
2019-05-10T11:01:46.150Z,16.89
2019-05-10T11:03:23.868Z,16.81
2019-05-10T11:04:23.364Z,16.81
2019-05-10T11:06:16.288Z,16.83
2019-05-10T11:07:16.300Z,16.93
2019-05-10T11:09:09.385Z,17.08
2019-05-10T11:10:18.041Z,17.19
2019-05-10T11:12:02.326Z,17.18
2019-05-10T11:13:10.678Z,17.15
2019-05-10T11:14:55.250Z,16.96
2019-05-10T11:15:58.829Z,16.96
2019-05-10T11:17:50.474Z,16.97
2019-05-10T11:18:48.200Z,17.03
2019-05-10T11:20:49.048Z,17.04
2019-05-10T11:21:41.597Z,16.91
2019-05-10T11:23:38.673Z,16.60
2019-05-10T11:24:34.067Z,16.60
2019-05-10T11:26:32.901Z,16.34
2019-05-10T11:27:26.994Z,16.49
2019-05-10T11:29:27.669Z,16.21
2019-05-10T11:30:21.483Z,16.42
2019-05-10T11:32:16.710Z,16.53
2019-05-10T11:33:26.580Z,16.57
2019-05-10T11:35:05.817Z,16.81
2019-05-10T11:36:08.629Z,17.06
2019-05-10T11:38:01.050Z,17.31
2019-05-10T11:38:58.920Z,17.22
2019-05-10T11:40:51.651Z,17.44
2019-05-10T11:42:00.544Z,17.44
2019-05-10T11:43:44.577Z,17.46
2019-05-10T11:44:49.965Z,17.26
2019-05-10T11:46:37.520Z,17.31
2019-05-10T11:47:37.522Z,17.34
2019-05-10T11:49:30.854Z,17.40
2019-05-10T11:52:23.379Z,17.41
2019-05-10T11:53:24.080Z,17.46
2019-05-10T11:55:16.303Z,17.33
2019-05-10T11:56:16.319Z,17.14
2019-05-10T11:58:12.973Z,17.06
2019-05-10T11:59:05.179Z,17.26
2019-05-10T11:59:15.870Z,17.14
2019-05-10T12:01:08.852Z,17.28
2019-05-10T12:02:02.882Z,17.33
2019-05-10T12:03:55.094Z,17.37
2019-05-10T12:04:55.109Z,17.38
2019-05-10T12:06:50.244Z,17.58
2019-05-10T12:07:48.039Z,17.68
2019-05-10T12:09:42.505Z,18.07
2019-05-10T12:10:43.068Z,18.23
2019-05-10T12:12:50.315Z,18.47
2019-05-10T12:13:33.986Z,18.63
2019-05-10T12:15:26.906Z,18.47
2019-05-10T12:16:26.920Z,18.65
2019-05-10T12:18:26.576Z,18.73
2019-05-10T12:19:21.345Z,18.65
2019-05-10T12:21:12.782Z,18.55
2019-05-10T12:22:15.976Z,18.15
2019-05-10T12:24:24.382Z,17.99
2019-05-10T12:25:34.874Z,18.12
2019-05-10T12:27:22.025Z,18.17
2019-05-10T12:28:01.141Z,17.93
2019-05-10T12:29:59.400Z,17.86
2019-05-10T12:30:51.608Z,17.79
2019-05-10T12:32:55.706Z,17.77
2019-05-10T12:33:45.406Z,17.64
2019-05-10T12:35:41.886Z,17.28
2019-05-10T12:36:37.475Z,16.98
2019-05-10T12:38:31.789Z,16.98
2019-05-10T12:39:30.977Z,17.03
2019-05-10T12:41:23.529Z,17.00
2019-05-10T12:42:23.354Z,16.98
2019-05-10T12:44:16.257Z,16.98
2019-05-10T12:45:16.273Z,17.00
2019-05-10T12:47:11.352Z,16.98
2019-05-10T12:48:09.211Z,17.07
2019-05-10T12:50:03.446Z,17.03
2019-05-10T12:51:08.157Z,17.00
2019-05-10T12:53:03.878Z,17.16
2019-05-10T12:53:55.066Z,17.25
2019-05-10T12:55:47.985Z,17.43
2019-05-10T12:56:47.999Z,17.55
2019-05-10T12:58:40.920Z,17.28
2019-05-10T12:59:40.930Z,17.23
2019-05-10T13:01:33.850Z,17.08
2019-05-10T13:02:33.859Z,17.19
2019-05-10T13:04:39.636Z,17.11
2019-05-10T13:05:32.059Z,17.11
2019-05-10T13:07:19.717Z,17.15
2019-05-10T13:08:19.723Z,17.14
2019-05-10T13:10:12.665Z,17.15
2019-05-10T13:11:12.655Z,17.04
2019-05-10T13:13:05.577Z,17.18
2019-05-10T13:14:07.470Z,17.26
2019-05-10T13:15:58.501Z,17.43
2019-05-10T13:16:58.517Z,17.51
2019-05-10T13:18:52.715Z,17.75
2019-05-10T13:19:52.742Z,17.81
2019-05-10T13:21:44.395Z,17.97
2019-05-10T13:22:44.381Z,18.11
2019-05-10T13:24:37.298Z,17.99
2019-05-10T13:25:37.314Z,18.08
2019-05-10T13:27:30.235Z,17.84
2019-05-10T13:28:30.252Z,17.75
2019-05-10T13:30:28.240Z,17.75
2019-05-10T13:31:23.177Z,17.68
2019-05-10T13:33:28.564Z,17.64
2019-05-10T13:34:16.110Z,17.66
2019-05-10T13:36:09.026Z,17.86
2019-05-10T13:37:13.728Z,18.02
2019-05-10T13:39:01.965Z,18.23
2019-05-10T13:40:05.276Z,18.27
2019-05-10T13:41:57.212Z,18.41
2019-05-10T13:42:54.906Z,18.44
2019-05-10T13:44:47.824Z,18.41
2019-05-10T13:45:47.838Z,18.48
2019-05-10T13:47:40.767Z,18.63
2019-05-10T13:48:40.773Z,18.62
2019-05-10T13:50:33.694Z,18.47
2019-05-10T13:51:33.708Z,18.42
2019-05-10T13:53:26.633Z,18.26
2019-05-10T13:54:31.272Z,18.36
2019-05-10T13:56:19.563Z,18.48
2019-05-10T13:57:19.580Z,18.52
2019-05-10T13:59:17.940Z,18.65
2019-05-10T14:00:12.511Z,18.82
2019-05-10T14:02:05.438Z,18.94
2019-05-10T14:03:11.550Z,19.02
2019-05-10T14:04:58.367Z,19.18
2019-05-10T14:05:58.378Z,18.95
2019-05-10T14:07:52.984Z,18.84
2019-05-10T14:08:51.335Z,18.85
2019-05-10T14:10:44.280Z,18.88
2019-05-10T14:11:46.976Z,18.78
2019-05-10T14:13:41.536Z,18.78
2019-05-10T14:14:37.270Z,18.80
2019-05-10T14:16:30.228Z,18.73
2019-05-10T14:17:30.303Z,18.36
2019-05-10T14:19:23.400Z,18.15
2019-05-10T14:20:25.373Z,18.14
2019-05-10T14:22:16.089Z,18.23
2019-05-10T14:23:17.877Z,18.20
2019-05-10T14:25:09.010Z,18.45
2019-05-10T14:26:15.448Z,18.52
2019-05-10T14:28:02.102Z,18.72
2019-05-10T14:29:02.119Z,18.85
2019-05-10T14:30:57.426Z,19.19
2019-05-10T14:31:55.048Z,19.21
2019-05-10T14:34:14.206Z,19.39
2019-05-10T14:34:47.996Z,19.31
2019-05-10T14:36:43.379Z,19.43
2019-05-10T14:37:40.929Z,19.46
2019-05-10T14:39:33.888Z,19.36
2019-05-10T14:40:33.864Z,19.37
2019-05-10T14:42:30.909Z,19.23
2019-05-10T14:43:26.802Z,19.10
2019-05-10T14:45:20.718Z,18.88
2019-05-10T14:46:20.736Z,18.73
2019-05-10T14:48:13.668Z,18.50
2019-05-10T14:49:13.671Z,18.42
2019-05-10T14:51:11.184Z,18.23
2019-05-10T14:52:06.601Z,18.05
2019-05-10T14:54:06.443Z,18.00
2019-05-10T14:54:59.532Z,18.15
2019-05-10T14:56:54.008Z,18.17
2019-05-10T14:57:52.467Z,18.18
2019-05-10T14:59:45.390Z,18.33
2019-05-10T15:00:45.399Z,18.58
2019-05-10T15:02:38.323Z,18.76
2019-05-10T15:03:45.365Z,18.78
2019-05-10T15:05:31.259Z,18.81
2019-05-10T15:06:37.049Z,18.69
2019-05-10T15:08:24.195Z,18.44
2019-05-10T15:09:24.345Z,18.26
2019-05-10T15:11:17.117Z,18.39
2019-05-10T15:12:22.312Z,18.33
2019-05-10T15:14:10.082Z,18.42
2019-05-10T15:15:10.066Z,18.33
2019-05-10T15:17:02.991Z,18.44
2019-05-10T15:18:03.645Z,18.67
2019-05-10T15:19:59.626Z,18.55
2019-05-10T15:20:55.933Z,18.62
2019-05-10T15:22:48.863Z,18.65
2019-05-10T15:23:48.862Z,18.75
2019-05-10T15:25:55.725Z,18.67
2019-05-10T15:26:43.799Z,18.70
2019-05-10T15:28:40.330Z,18.81
2019-05-10T15:29:34.734Z,18.81
2019-05-10T15:31:29.288Z,18.52
2019-05-10T15:32:27.665Z,18.51
2019-05-10T15:34:20.589Z,18.51
2019-05-10T15:35:20.595Z,18.52
2019-05-10T15:37:17.377Z,18.75
2019-05-10T15:38:13.526Z,18.70
2019-05-10T15:40:08.017Z,18.57
2019-05-10T15:41:06.459Z,18.50
2019-05-10T15:43:02.879Z,18.50
2019-05-10T15:43:59.398Z,18.55
2019-05-10T15:45:54.688Z,18.42
2019-05-10T15:46:52.329Z,18.51
2019-05-10T15:48:45.250Z,18.42
2019-05-10T15:49:45.261Z,18.36
2019-05-10T15:51:38.181Z,18.20
2019-05-10T15:54:31.122Z,18.17
2019-05-10T15:55:31.128Z,18.15
2019-05-10T15:57:24.087Z,18.27
2019-05-10T15:58:24.067Z,18.30
2019-05-10T15:59:23.831Z,18.02
2019-05-10T16:00:16.985Z,18.30
2019-05-10T16:01:26.212Z,18.26
2019-05-10T16:03:10.529Z,18.23
2019-05-10T16:04:09.934Z,18.23
2019-05-10T16:06:02.862Z,18.35
2019-05-10T16:07:02.869Z,18.37
2019-05-10T16:08:55.831Z,18.36
2019-05-10T16:09:56.173Z,18.39
2019-05-10T16:11:48.757Z,18.30
2019-05-10T16:12:48.772Z,18.26
2019-05-10T16:14:45.090Z,18.18
2019-05-10T16:15:41.710Z,18.30
2019-05-10T16:17:34.627Z,18.29
2019-05-10T16:18:40.100Z,18.23
2019-05-10T16:20:31.764Z,18.18
2019-05-10T16:21:28.077Z,18.25
2019-05-10T16:23:22.581Z,18.29
2019-05-10T16:24:26.126Z,18.25
2019-05-10T16:26:17.576Z,18.11
2019-05-10T16:27:16.007Z,18.14
2019-05-10T16:29:08.954Z,18.11
2019-05-10T16:30:17.176Z,18.11
2019-05-10T16:32:02.377Z,18.00
2019-05-10T16:33:02.391Z,17.90
2019-05-10T16:34:55.809Z,18.00
2019-05-10T16:35:55.820Z,18.12
2019-05-10T16:37:48.740Z,18.02
2019-05-10T16:38:48.753Z,18.11
2019-05-10T16:40:44.506Z,18.07
2019-05-10T16:41:41.687Z,18.11
2019-05-10T16:43:34.611Z,18.08
2019-05-10T16:44:34.631Z,17.93
2019-05-10T16:46:27.614Z,17.86
2019-05-10T16:47:27.570Z,17.89
2019-05-10T16:49:20.488Z,17.95
2019-05-10T16:50:20.630Z,17.79
2019-05-10T16:52:13.414Z,17.89
2019-05-10T16:53:13.424Z,17.86
2019-05-10T16:55:09.452Z,17.96
2019-05-10T16:56:06.353Z,17.95
2019-05-10T16:57:59.773Z,18.08
2019-05-10T16:58:59.788Z,18.10
2019-05-10T17:00:52.709Z,18.14
2019-05-10T17:02:03.180Z,18.10
2019-05-10T17:03:45.641Z,18.05
2019-05-10T17:04:45.652Z,18.08
2019-05-10T17:06:40.500Z,17.93
2019-05-10T17:07:38.580Z,18.00
2019-05-10T17:09:31.501Z,18.00
2019-05-10T17:10:32.827Z,17.97
2019-05-10T17:12:27.497Z,17.78
2019-05-10T17:13:24.448Z,17.77
2019-05-10T17:15:17.368Z,17.72
2019-05-10T17:16:18.891Z,17.71
2019-05-10T17:18:17.550Z,17.59
2019-05-10T17:19:10.801Z,17.56
2019-05-10T17:21:03.723Z,17.55
2019-05-10T17:22:03.733Z,17.44
2019-05-10T17:23:56.645Z,17.48
2019-05-10T17:25:02.561Z,17.40
2019-05-10T17:26:49.579Z,17.34
2019-05-10T17:27:50.625Z,17.31
2019-05-10T17:29:44.484Z,17.21
2019-05-10T17:30:44.856Z,17.18
2019-05-10T17:32:35.442Z,16.94
2019-05-10T17:33:36.757Z,16.93
2019-05-10T17:35:28.369Z,16.75
2019-05-10T17:36:28.378Z,16.82
2019-05-10T17:38:21.292Z,16.68
2019-05-10T17:39:26.190Z,16.61
2019-05-10T17:41:14.227Z,16.50
2019-05-10T17:42:14.233Z,16.30
2019-05-10T17:44:07.148Z,15.96
2019-05-10T17:45:07.162Z,15.87
2019-05-10T17:47:00.575Z,15.80
2019-05-10T17:48:03.515Z,15.64
2019-05-10T17:49:53.516Z,15.54
2019-05-10T17:50:53.511Z,15.49
2019-05-10T17:52:46.424Z,15.43
2019-05-10T17:53:46.434Z,15.31
2019-05-10T17:55:39.352Z,15.20
2019-05-10T17:56:40.652Z,15.11
2019-05-10T17:58:33.766Z,15.07
2019-05-10T17:59:32.286Z,14.94
2019-05-10T18:01:25.206Z,14.83
2019-05-10T18:02:25.212Z,14.80
2019-05-10T18:04:18.126Z,14.81
2019-05-10T18:05:18.135Z,14.83
2019-05-10T18:07:11.546Z,14.86
2019-05-10T18:08:11.555Z,14.70
2019-05-10T18:10:04.468Z,14.75
2019-05-10T18:11:06.232Z,14.73
2019-05-10T18:13:03.172Z,14.52
2019-05-10T18:13:57.406Z,14.45
2019-05-10T18:15:50.325Z,14.43
2019-05-10T18:16:50.331Z,14.42
2019-05-10T18:18:47.057Z,14.42
2019-05-10T18:19:43.254Z,14.42
2019-05-10T18:21:36.667Z,14.39
2019-05-10T18:22:42.995Z,14.42
2019-05-10T18:24:30.287Z,14.55
2019-05-10T18:25:29.608Z,14.54
2019-05-10T18:27:22.522Z,14.54
2019-05-10T18:28:22.525Z,14.57
2019-05-10T18:30:15.440Z,14.61
2019-05-10T18:31:15.461Z,14.62
2019-05-10T18:33:12.181Z,14.55